sensor_id;sensor_type;location;lat;lon;timestamp;temperature;humidity
5394;DHT22;2720;52.396;10.064;2023-02-28T00:01:32;-1.80;99.90
5394;DHT22;2720;52.396;10.064;2023-02-28T00:03:59;-1.70;99.90
5394;DHT22;2720;52.396;10.064;2023-02-28T00:06:27;-1.60;99.90
5394;DHT22;2720;52.396;10.064;2023-02-28T00:08:54;-1.40;99.90
5394;DHT22;2720;52.396;10.064;2023-02-28T00:11:21;-1.30;99.90
5394;DHT22;2720;52.396;10.064;2023-02-28T00:13:49;-1.30;99.90
5394;DHT22;2720;52.396;10.064;2023-02-28T00:16:18;-1.20;99.90
5394;DHT22;2720;52.396;10.064;2023-02-28T00:18:46;-1.10;99.90
5394;DHT22;2720;52.396;10.064;2023-02-28T00:21:14;-1.10;99.90
5394;DHT22;2720;52.396;10.064;2023-02-28T00:23:41;-1.10;99.90
5394;DHT22;2720;52.396;10.064;2023-02-28T00:26:08;-1.00;99.90
5394;DHT22;2720;52.396;10.064;2023-02-28T00:28:35;-1.10;99.90
5394;DHT22;2720;52.396;10.064;2023-02-28T00:31:03;-1.20;99.90
5394;DHT22;2720;52.396;10.064;2023-02-28T00:33:31;-1.30;99.90
5394;DHT22;2720;52.396;10.064;2023-02-28T00:36:06;-1.40;99.90
5394;DHT22;2720;52.396;10.064;2023-02-28T00:38:33;-1.60;99.90
5394;DHT22;2720;52.396;10.064;2023-02-28T00:41:00;-1.60;99.90
5394;DHT22;2720;52.396;10.064;2023-02-28T00:43:31;-1.70;99.90
5394;DHT22;2720;52.396;10.064;2023-02-28T00:45:58;-1.90;99.90
5394;DHT22;2720;52.396;10.064;2023-02-28T00:48:27;-2.00;99.90
5394;DHT22;2720;52.396;10.064;2023-02-28T00:50:54;-2.20;99.90
5394;DHT22;2720;52.396;10.064;2023-02-28T00:53:21;-2.30;99.90
5394;DHT22;2720;52.396;10.064;2023-02-28T00:55:49;-2.50;99.90
5394;DHT22;2720;52.396;10.064;2023-02-28T00:58:16;-2.50;99.90
5394;DHT22;2720;52.396;10.064;2023-02-28T01:00:43;-2.40;99.90
5394;DHT22;2720;52.396;10.064;2023-02-28T01:03:15;-2.40;99.90
5394;DHT22;2720;52.396;10.064;2023-02-28T01:05:44;-2.40;99.90
5394;DHT22;2720;52.396;10.064;2023-02-28T01:08:11;-2.40;99.90
5394;DHT22;2720;52.396;10.064;2023-02-28T01:10:39;-2.40;99.90
5394;DHT22;2720;52.396;10.064;2023-02-28T01:13:06;-2.50;99.90
5394;DHT22;2720;52.396;10.064;2023-02-28T01:15:33;-2.60;99.90
5394;DHT22;2720;52.396;10.064;2023-02-28T01:18:01;-2.50;99.90
5394;DHT22;2720;52.396;10.064;2023-02-28T01:20:28;-2.70;99.90
5394;DHT22;2720;52.396;10.064;2023-02-28T01:22:56;-2.70;99.90
5394;DHT22;2720;52.396;10.064;2023-02-28T01:25:23;-2.60;99.90
5394;DHT22;2720;52.396;10.064;2023-02-28T01:27:50;-2.70;99.90
5394;DHT22;2720;52.396;10.064;2023-02-28T01:30:17;-2.70;99.90
5394;DHT22;2720;52.396;10.064;2023-02-28T01:32:44;-3.00;99.90
5394;DHT22;2720;52.396;10.064;2023-02-28T01:35:11;-2.90;99.90
5394;DHT22;2720;52.396;10.064;2023-02-28T01:37:38;-3.00;99.90
5394;DHT22;2720;52.396;10.064;2023-02-28T01:40:08;-3.20;99.90
5394;DHT22;2720;52.396;10.064;2023-02-28T01:42:35;-3.10;99.90
5394;DHT22;2720;52.396;10.064;2023-02-28T01:45:15;-3.00;99.90
5394;DHT22;2720;52.396;10.064;2023-02-28T01:47:45;-3.20;99.90
5394;DHT22;2720;52.396;10.064;2023-02-28T01:50:17;-2.90;99.90
5394;DHT22;2720;52.396;10.064;2023-02-28T01:52:47;-3.10;99.90
5394;DHT22;2720;52.396;10.064;2023-02-28T01:55:17;-2.80;99.90
5394;DHT22;2720;52.396;10.064;2023-02-28T01:57:48;-2.80;99.90
5394;DHT22;2720;52.396;10.064;2023-02-28T02:00:17;-2.90;99.90
5394;DHT22;2720;52.396;10.064;2023-02-28T02:02:47;-3.10;99.90
5394;DHT22;2720;52.396;10.064;2023-02-28T02:05:17;-3.10;99.90
5394;DHT22;2720;52.396;10.064;2023-02-28T02:07:47;-3.00;99.90
5394;DHT22;2720;52.396;10.064;2023-02-28T02:10:18;-3.00;99.90
5394;DHT22;2720;52.396;10.064;2023-02-28T02:13:00;-3.10;99.90
5394;DHT22;2720;52.396;10.064;2023-02-28T02:15:34;-2.80;99.90
5394;DHT22;2720;52.396;10.064;2023-02-28T02:18:06;-2.80;99.90
5394;DHT22;2720;52.396;10.064;2023-02-28T02:21:29;-3.10;99.90
5394;DHT22;2720;52.396;10.064;2023-02-28T02:24:33;-3.20;99.90
5394;DHT22;2720;52.396;10.064;2023-02-28T02:30:39;-3.30;99.90
5394;DHT22;2720;52.396;10.064;2023-02-28T02:33:18;-3.20;99.90
5394;DHT22;2720;52.396;10.064;2023-02-28T02:35:54;-3.00;99.90
5394;DHT22;2720;52.396;10.064;2023-02-28T02:38:31;-3.20;99.90
5394;DHT22;2720;52.396;10.064;2023-02-28T02:41:20;-3.20;99.90
5394;DHT22;2720;52.396;10.064;2023-02-28T02:43:51;-3.20;99.90
5394;DHT22;2720;52.396;10.064;2023-02-28T02:46:21;-3.20;99.90
5394;DHT22;2720;52.396;10.064;2023-02-28T02:48:51;-3.20;99.90
5394;DHT22;2720;52.396;10.064;2023-02-28T02:51:24;-3.20;99.90
5394;DHT22;2720;52.396;10.064;2023-02-28T02:53:54;-3.20;99.90
5394;DHT22;2720;52.396;10.064;2023-02-28T02:56:27;-3.20;99.90
5394;DHT22;2720;52.396;10.064;2023-02-28T02:59:00;-3.30;99.90
5394;DHT22;2720;52.396;10.064;2023-02-28T03:01:29;-3.20;99.90
5394;DHT22;2720;52.396;10.064;2023-02-28T03:03:59;-3.50;99.90
5394;DHT22;2720;52.396;10.064;2023-02-28T03:06:29;-3.30;99.90
5394;DHT22;2720;52.396;10.064;2023-02-28T03:08:56;-3.40;99.90
5394;DHT22;2720;52.396;10.064;2023-02-28T03:11:23;-3.40;99.90
5394;DHT22;2720;52.396;10.064;2023-02-28T03:14:22;-3.50;99.90
5394;DHT22;2720;52.396;10.064;2023-02-28T03:17:10;-3.70;99.90
5394;DHT22;2720;52.396;10.064;2023-02-28T03:19:50;-3.50;99.90
5394;DHT22;2720;52.396;10.064;2023-02-28T03:22:38;-3.30;99.90
5394;DHT22;2720;52.396;10.064;2023-02-28T03:25:09;-3.30;99.90
5394;DHT22;2720;52.396;10.064;2023-02-28T03:27:42;-3.30;99.90
5394;DHT22;2720;52.396;10.064;2023-02-28T03:30:22;-3.30;99.90
5394;DHT22;2720;52.396;10.064;2023-02-28T03:32:54;-3.20;99.90
5394;DHT22;2720;52.396;10.064;2023-02-28T03:35:25;-3.20;99.90
5394;DHT22;2720;52.396;10.064;2023-02-28T03:38:00;-3.20;99.90
5394;DHT22;2720;52.396;10.064;2023-02-28T03:40:33;-3.30;99.90
5394;DHT22;2720;52.396;10.064;2023-02-28T03:43:06;-3.20;99.90
5394;DHT22;2720;52.396;10.064;2023-02-28T03:45:38;-3.40;99.90
5394;DHT22;2720;52.396;10.064;2023-02-28T03:48:11;-3.50;99.90
5394;DHT22;2720;52.396;10.064;2023-02-28T03:50:40;-3.80;99.90
5394;DHT22;2720;52.396;10.064;2023-02-28T03:53:12;-3.80;99.90
5394;DHT22;2720;52.396;10.064;2023-02-28T03:55:44;-4.00;99.90
5394;DHT22;2720;52.396;10.064;2023-02-28T03:58:16;-4.10;99.90
5394;DHT22;2720;52.396;10.064;2023-02-28T04:00:50;-4.10;99.90
5394;DHT22;2720;52.396;10.064;2023-02-28T04:03:19;-4.10;99.90
5394;DHT22;2720;52.396;10.064;2023-02-28T04:05:50;-4.20;99.90
5394;DHT22;2720;52.396;10.064;2023-02-28T04:08:19;-4.00;99.90
5394;DHT22;2720;52.396;10.064;2023-02-28T04:10:51;-4.20;99.90
5394;DHT22;2720;52.396;10.064;2023-02-28T04:13:20;-4.30;99.90
5394;DHT22;2720;52.396;10.064;2023-02-28T04:15:47;-4.20;99.90
5394;DHT22;2720;52.396;10.064;2023-02-28T04:18:14;-4.20;99.90
5394;DHT22;2720;52.396;10.064;2023-02-28T04:20:41;-4.00;99.90
5394;DHT22;2720;52.396;10.064;2023-02-28T04:23:08;-3.90;99.90
5394;DHT22;2720;52.396;10.064;2023-02-28T04:25:36;-3.70;99.90
5394;DHT22;2720;52.396;10.064;2023-02-28T04:28:05;-3.60;99.90
5394;DHT22;2720;52.396;10.064;2023-02-28T04:30:32;-3.60;99.90
5394;DHT22;2720;52.396;10.064;2023-02-28T04:33:00;-3.70;99.90
5394;DHT22;2720;52.396;10.064;2023-02-28T04:35:26;-3.50;99.90
5394;DHT22;2720;52.396;10.064;2023-02-28T04:37:53;-3.20;99.90
5394;DHT22;2720;52.396;10.064;2023-02-28T04:40:20;-3.20;99.90
5394;DHT22;2720;52.396;10.064;2023-02-28T04:42:49;-3.20;99.90
5394;DHT22;2720;52.396;10.064;2023-02-28T04:45:16;-3.30;99.90
5394;DHT22;2720;52.396;10.064;2023-02-28T04:47:43;-3.60;99.90
5394;DHT22;2720;52.396;10.064;2023-02-28T04:50:10;-3.50;99.90
5394;DHT22;2720;52.396;10.064;2023-02-28T04:52:37;-3.50;99.90
5394;DHT22;2720;52.396;10.064;2023-02-28T04:55:05;-3.70;99.90
5394;DHT22;2720;52.396;10.064;2023-02-28T04:57:32;-3.90;99.90
5394;DHT22;2720;52.396;10.064;2023-02-28T05:00:01;-3.70;99.90
5394;DHT22;2720;52.396;10.064;2023-02-28T05:02:30;-3.50;99.90
5394;DHT22;2720;52.396;10.064;2023-02-28T05:04:57;-3.60;99.90
5394;DHT22;2720;52.396;10.064;2023-02-28T05:07:24;-3.80;99.90
5394;DHT22;2720;52.396;10.064;2023-02-28T05:09:51;-3.50;99.90
5394;DHT22;2720;52.396;10.064;2023-02-28T05:12:18;-3.70;99.90
5394;DHT22;2720;52.396;10.064;2023-02-28T05:14:45;-3.80;99.90
5394;DHT22;2720;52.396;10.064;2023-02-28T05:17:14;-3.80;99.90
5394;DHT22;2720;52.396;10.064;2023-02-28T05:19:41;-4.00;99.90
5394;DHT22;2720;52.396;10.064;2023-02-28T05:22:13;-3.80;99.90
5394;DHT22;2720;52.396;10.064;2023-02-28T05:24:42;-3.50;99.90
5394;DHT22;2720;52.396;10.064;2023-02-28T05:27:10;-3.70;99.90
5394;DHT22;2720;52.396;10.064;2023-02-28T05:29:37;-3.70;99.90
5394;DHT22;2720;52.396;10.064;2023-02-28T05:32:09;-3.60;99.90
5394;DHT22;2720;52.396;10.064;2023-02-28T05:34:38;-3.90;99.90
5394;DHT22;2720;52.396;10.064;2023-02-28T05:37:05;-3.40;99.90
5394;DHT22;2720;52.396;10.064;2023-02-28T05:39:32;-3.50;99.90
5394;DHT22;2720;52.396;10.064;2023-02-28T05:41:59;-3.60;99.90
5394;DHT22;2720;52.396;10.064;2023-02-28T05:44:26;-3.70;99.90
5394;DHT22;2720;52.396;10.064;2023-02-28T05:46:53;-3.90;99.90
5394;DHT22;2720;52.396;10.064;2023-02-28T05:49:21;-3.50;99.90
5394;DHT22;2720;52.396;10.064;2023-02-28T05:51:49;-3.60;99.90
5394;DHT22;2720;52.396;10.064;2023-02-28T05:54:16;-3.60;99.90
5394;DHT22;2720;52.396;10.064;2023-02-28T05:56:43;-3.50;99.90
5394;DHT22;2720;52.396;10.064;2023-02-28T05:59:11;-3.40;99.90
5394;DHT22;2720;52.396;10.064;2023-02-28T06:01:40;-3.60;99.90
5394;DHT22;2720;52.396;10.064;2023-02-28T06:04:09;-3.60;99.90
5394;DHT22;2720;52.396;10.064;2023-02-28T06:06:37;-3.90;99.90
5394;DHT22;2720;52.396;10.064;2023-02-28T06:09:06;-3.80;99.90
5394;DHT22;2720;52.396;10.064;2023-02-28T06:11:33;-3.90;99.90
5394;DHT22;2720;52.396;10.064;2023-02-28T06:14:00;-3.80;99.90
5394;DHT22;2720;52.396;10.064;2023-02-28T06:16:28;-4.20;99.90
5394;DHT22;2720;52.396;10.064;2023-02-28T06:18:57;-4.00;99.90
5394;DHT22;2720;52.396;10.064;2023-02-28T06:21:24;-4.00;99.90
5394;DHT22;2720;52.396;10.064;2023-02-28T06:23:53;-3.90;99.90
5394;DHT22;2720;52.396;10.064;2023-02-28T06:26:21;-3.90;99.90
5394;DHT22;2720;52.396;10.064;2023-02-28T06:28:48;-3.80;99.90
5394;DHT22;2720;52.396;10.064;2023-02-28T06:31:17;-4.00;99.90
5394;DHT22;2720;52.396;10.064;2023-02-28T06:33:45;-4.00;99.90
5394;DHT22;2720;52.396;10.064;2023-02-28T06:36:13;-4.00;99.90
5394;DHT22;2720;52.396;10.064;2023-02-28T06:38:40;-3.60;99.90
5394;DHT22;2720;52.396;10.064;2023-02-28T06:41:08;-3.80;99.90
5394;DHT22;2720;52.396;10.064;2023-02-28T06:43:39;-3.60;99.90
5394;DHT22;2720;52.396;10.064;2023-02-28T06:46:08;-3.40;99.90
5394;DHT22;2720;52.396;10.064;2023-02-28T06:48:35;-3.40;99.90
5394;DHT22;2720;52.396;10.064;2023-02-28T06:51:04;-3.50;99.90
5394;DHT22;2720;52.396;10.064;2023-02-28T06:53:32;-3.30;99.90
5394;DHT22;2720;52.396;10.064;2023-02-28T06:55:59;-3.20;99.90
5394;DHT22;2720;52.396;10.064;2023-02-28T06:58:31;-3.10;99.90
5394;DHT22;2720;52.396;10.064;2023-02-28T07:00:59;-2.80;99.90
5394;DHT22;2720;52.396;10.064;2023-02-28T07:03:26;-2.80;99.90
5394;DHT22;2720;52.396;10.064;2023-02-28T07:05:53;-2.90;99.90
5394;DHT22;2720;52.396;10.064;2023-02-28T07:08:22;-2.40;99.90
5394;DHT22;2720;52.396;10.064;2023-02-28T07:10:52;-2.40;99.90
5394;DHT22;2720;52.396;10.064;2023-02-28T07:13:19;-2.30;99.90
5394;DHT22;2720;52.396;10.064;2023-02-28T07:15:53;-2.10;99.90
5394;DHT22;2720;52.396;10.064;2023-02-28T07:18:22;-1.90;99.90
5394;DHT22;2720;52.396;10.064;2023-02-28T07:23:17;-1.70;99.90
5394;DHT22;2720;52.396;10.064;2023-02-28T07:25:44;-1.60;99.90
5394;DHT22;2720;52.396;10.064;2023-02-28T07:30:39;-1.50;99.90
5394;DHT22;2720;52.396;10.064;2023-02-28T07:33:06;-1.30;99.90
5394;DHT22;2720;52.396;10.064;2023-02-28T07:35:35;-1.30;99.90
5394;DHT22;2720;52.396;10.064;2023-02-28T07:38:03;-1.20;99.90
5394;DHT22;2720;52.396;10.064;2023-02-28T07:40:30;-1.10;99.90
5394;DHT22;2720;52.396;10.064;2023-02-28T07:42:59;-1.00;99.90
5394;DHT22;2720;52.396;10.064;2023-02-28T07:45:26;-1.00;99.90
5394;DHT22;2720;52.396;10.064;2023-02-28T07:47:54;-0.90;99.90
5394;DHT22;2720;52.396;10.064;2023-02-28T07:50:22;-0.80;99.90
5394;DHT22;2720;52.396;10.064;2023-02-28T07:52:50;-0.70;99.90
5394;DHT22;2720;52.396;10.064;2023-02-28T07:55:17;-0.60;99.90
5394;DHT22;2720;52.396;10.064;2023-02-28T07:57:44;-0.50;99.90
5394;DHT22;2720;52.396;10.064;2023-02-28T08:00:12;-0.40;99.90
5394;DHT22;2720;52.396;10.064;2023-02-28T08:02:39;-0.30;99.90
5394;DHT22;2720;52.396;10.064;2023-02-28T08:05:07;-0.20;99.90
5394;DHT22;2720;52.396;10.064;2023-02-28T08:07:34;0.00;99.90
5394;DHT22;2720;52.396;10.064;2023-02-28T08:10:03;0.10;99.90
5394;DHT22;2720;52.396;10.064;2023-02-28T08:12:32;0.40;99.90
5394;DHT22;2720;52.396;10.064;2023-02-28T08:14:59;0.60;99.90
5394;DHT22;2720;52.396;10.064;2023-02-28T08:17:26;0.60;99.90
5394;DHT22;2720;52.396;10.064;2023-02-28T08:19:53;0.70;99.90
5394;DHT22;2720;52.396;10.064;2023-02-28T08:22:20;1.00;99.90
5394;DHT22;2720;52.396;10.064;2023-02-28T08:24:47;1.00;99.90
5394;DHT22;2720;52.396;10.064;2023-02-28T08:27:16;1.20;99.90
5394;DHT22;2720;52.396;10.064;2023-02-28T08:29:43;1.30;99.90
5394;DHT22;2720;52.396;10.064;2023-02-28T08:32:10;0.60;99.90
5394;DHT22;2720;52.396;10.064;2023-02-28T08:34:39;1.40;99.90
5394;DHT22;2720;52.396;10.064;2023-02-28T08:37:06;1.50;99.90
5394;DHT22;2720;52.396;10.064;2023-02-28T08:39:34;1.60;99.90
5394;DHT22;2720;52.396;10.064;2023-02-28T08:42:02;1.70;99.90
5394;DHT22;2720;52.396;10.064;2023-02-28T08:44:30;1.80;99.90
5394;DHT22;2720;52.396;10.064;2023-02-28T08:46:57;1.90;99.90
5394;DHT22;2720;52.396;10.064;2023-02-28T08:49:24;2.00;99.90
5394;DHT22;2720;52.396;10.064;2023-02-28T08:51:51;1.80;99.90
5394;DHT22;2720;52.396;10.064;2023-02-28T08:54:18;2.00;99.90
5394;DHT22;2720;52.396;10.064;2023-02-28T08:56:45;2.10;99.90
5394;DHT22;2720;52.396;10.064;2023-02-28T08:59:13;2.10;99.90
5394;DHT22;2720;52.396;10.064;2023-02-28T09:01:41;2.10;99.90
5394;DHT22;2720;52.396;10.064;2023-02-28T09:04:09;2.10;99.90
5394;DHT22;2720;52.396;10.064;2023-02-28T09:06:37;2.20;99.90
5394;DHT22;2720;52.396;10.064;2023-02-28T09:09:04;2.30;99.90
5394;DHT22;2720;52.396;10.064;2023-02-28T09:11:33;2.20;99.90
5394;DHT22;2720;52.396;10.064;2023-02-28T09:14:01;2.40;99.90
5394;DHT22;2720;52.396;10.064;2023-02-28T09:16:29;2.50;99.90
5394;DHT22;2720;52.396;10.064;2023-02-28T09:18:58;2.50;99.90
5394;DHT22;2720;52.396;10.064;2023-02-28T09:21:25;2.60;99.90
5394;DHT22;2720;52.396;10.064;2023-02-28T09:23:53;2.60;99.90
5394;DHT22;2720;52.396;10.064;2023-02-28T09:26:22;2.80;99.90
5394;DHT22;2720;52.396;10.064;2023-02-28T09:28:49;2.80;99.90
5394;DHT22;2720;52.396;10.064;2023-02-28T09:31:18;2.80;99.90
5394;DHT22;2720;52.396;10.064;2023-02-28T09:33:48;2.80;99.90
5394;DHT22;2720;52.396;10.064;2023-02-28T09:36:16;2.90;99.90
5394;DHT22;2720;52.396;10.064;2023-02-28T09:38:43;3.00;99.90
5394;DHT22;2720;52.396;10.064;2023-02-28T09:41:13;3.20;99.90
5394;DHT22;2720;52.396;10.064;2023-02-28T09:43:44;3.30;99.90
5394;DHT22;2720;52.396;10.064;2023-02-28T09:46:24;3.30;99.90
5394;DHT22;2720;52.396;10.064;2023-02-28T09:48:53;3.40;99.90
5394;DHT22;2720;52.396;10.064;2023-02-28T09:51:37;3.50;99.90
5394;DHT22;2720;52.396;10.064;2023-02-28T09:54:13;3.50;99.90
5394;DHT22;2720;52.396;10.064;2023-02-28T09:56:45;3.50;99.90
5394;DHT22;2720;52.396;10.064;2023-02-28T09:59:25;3.70;99.90
5394;DHT22;2720;52.396;10.064;2023-02-28T10:02:00;3.70;99.90
5394;DHT22;2720;52.396;10.064;2023-02-28T10:04:40;3.70;99.90
5394;DHT22;2720;52.396;10.064;2023-02-28T10:07:19;3.90;99.90
5394;DHT22;2720;52.396;10.064;2023-02-28T10:09:53;3.80;99.90
5394;DHT22;2720;52.396;10.064;2023-02-28T10:12:21;3.80;99.90
5394;DHT22;2720;52.396;10.064;2023-02-28T10:14:51;3.80;99.90
5394;DHT22;2720;52.396;10.064;2023-02-28T10:17:22;3.90;99.90
5394;DHT22;2720;52.396;10.064;2023-02-28T10:19:56;3.90;99.90
5394;DHT22;2720;52.396;10.064;2023-02-28T10:22:29;3.90;99.90
5394;DHT22;2720;52.396;10.064;2023-02-28T10:24:58;4.00;99.90
5394;DHT22;2720;52.396;10.064;2023-02-28T10:27:30;4.10;99.90
5394;DHT22;2720;52.396;10.064;2023-02-28T10:29:59;4.10;99.90
5394;DHT22;2720;52.396;10.064;2023-02-28T10:32:29;4.20;99.90
5394;DHT22;2720;52.396;10.064;2023-02-28T10:34:59;4.20;99.90
5394;DHT22;2720;52.396;10.064;2023-02-28T10:37:28;4.30;99.90
5394;DHT22;2720;52.396;10.064;2023-02-28T10:39:57;4.40;99.90
5394;DHT22;2720;52.396;10.064;2023-02-28T10:42:25;4.30;99.90
5394;DHT22;2720;52.396;10.064;2023-02-28T10:45:12;4.30;99.90
5394;DHT22;2720;52.396;10.064;2023-02-28T10:47:50;4.20;99.90
5394;DHT22;2720;52.396;10.064;2023-02-28T10:53:07;4.30;99.90
5394;DHT22;2720;52.396;10.064;2023-02-28T10:55:40;4.40;99.90
5394;DHT22;2720;52.396;10.064;2023-02-28T10:58:21;4.50;99.90
5394;DHT22;2720;52.396;10.064;2023-02-28T11:03:30;4.40;99.90
5394;DHT22;2720;52.396;10.064;2023-02-28T11:05:59;4.60;99.90
5394;DHT22;2720;52.396;10.064;2023-02-28T11:11:04;4.70;99.90
5394;DHT22;2720;52.396;10.064;2023-02-28T11:13:34;4.90;99.90
5394;DHT22;2720;52.396;10.064;2023-02-28T11:16:05;5.10;99.90
5394;DHT22;2720;52.396;10.064;2023-02-28T11:18:38;5.10;99.90
5394;DHT22;2720;52.396;10.064;2023-02-28T11:21:08;5.30;99.90
5394;DHT22;2720;52.396;10.064;2023-02-28T11:23:40;5.10;99.90
5394;DHT22;2720;52.396;10.064;2023-02-28T11:28:38;4.40;99.90
5394;DHT22;2720;52.396;10.064;2023-02-28T11:31:16;4.20;99.90
5394;DHT22;2720;52.396;10.064;2023-02-28T11:33:46;4.40;99.90
5394;DHT22;2720;52.396;10.064;2023-02-28T11:36:18;4.90;99.90
5394;DHT22;2720;52.396;10.064;2023-02-28T11:38:48;5.20;99.90
5394;DHT22;2720;52.396;10.064;2023-02-28T11:41:46;5.40;99.90
5394;DHT22;2720;52.396;10.064;2023-02-28T11:44:28;5.50;99.90
5394;DHT22;2720;52.396;10.064;2023-02-28T11:47:04;5.50;99.90
5394;DHT22;2720;52.396;10.064;2023-02-28T11:49:37;5.60;99.90
5394;DHT22;2720;52.396;10.064;2023-02-28T11:52:16;5.70;99.90
5394;DHT22;2720;52.396;10.064;2023-02-28T11:55:02;6.00;99.90
5394;DHT22;2720;52.396;10.064;2023-02-28T12:00:11;6.80;99.90
5394;DHT22;2720;52.396;10.064;2023-02-28T12:02:56;7.10;99.90
5394;DHT22;2720;52.396;10.064;2023-02-28T12:05:31;7.40;99.90
5394;DHT22;2720;52.396;10.064;2023-02-28T12:08:10;7.30;99.90
5394;DHT22;2720;52.396;10.064;2023-02-28T12:10:53;6.90;99.90
5394;DHT22;2720;52.396;10.064;2023-02-28T12:13:26;6.90;99.90
5394;DHT22;2720;52.396;10.064;2023-02-28T12:16:23;7.20;99.90
5394;DHT22;2720;52.396;10.064;2023-02-28T12:19:02;7.60;99.90
5394;DHT22;2720;52.396;10.064;2023-02-28T12:21:44;7.70;99.90
5394;DHT22;2720;52.396;10.064;2023-02-28T12:24:40;7.40;99.90
5394;DHT22;2720;52.396;10.064;2023-02-28T12:27:30;7.40;99.90
5394;DHT22;2720;52.396;10.064;2023-02-28T12:30:03;7.40;99.90
5394;DHT22;2720;52.396;10.064;2023-02-28T12:32:33;7.20;99.90
5394;DHT22;2720;52.396;10.064;2023-02-28T12:35:04;7.30;99.90
5394;DHT22;2720;52.396;10.064;2023-02-28T12:37:37;7.30;99.90
5394;DHT22;2720;52.396;10.064;2023-02-28T12:40:11;7.30;99.90
5394;DHT22;2720;52.396;10.064;2023-02-28T12:42:43;7.40;99.90
5394;DHT22;2720;52.396;10.064;2023-02-28T12:45:17;7.20;99.90
5394;DHT22;2720;52.396;10.064;2023-02-28T12:47:48;7.00;99.90
5394;DHT22;2720;52.396;10.064;2023-02-28T12:50:17;6.40;99.90
5394;DHT22;2720;52.396;10.064;2023-02-28T12:52:51;5.90;99.90
5394;DHT22;2720;52.396;10.064;2023-02-28T12:55:23;5.50;99.90
5394;DHT22;2720;52.396;10.064;2023-02-28T12:58:08;5.20;99.90
5394;DHT22;2720;52.396;10.064;2023-02-28T13:00:46;5.10;99.90
5394;DHT22;2720;52.396;10.064;2023-02-28T13:03:44;5.40;99.90
5394;DHT22;2720;52.396;10.064;2023-02-28T13:06:36;5.60;99.90
5394;DHT22;2720;52.396;10.064;2023-02-28T13:09:10;5.90;99.90
5394;DHT22;2720;52.396;10.064;2023-02-28T13:11:41;6.10;99.90
5394;DHT22;2720;52.396;10.064;2023-02-28T13:14:35;6.20;99.90
5394;DHT22;2720;52.396;10.064;2023-02-28T13:17:10;6.30;99.90
5394;DHT22;2720;52.396;10.064;2023-02-28T13:19:40;6.40;99.90
5394;DHT22;2720;52.396;10.064;2023-02-28T13:22:17;6.60;99.90
5394;DHT22;2720;52.396;10.064;2023-02-28T13:24:49;6.70;99.90
5394;DHT22;2720;52.396;10.064;2023-02-28T13:27:35;6.80;99.90
5394;DHT22;2720;52.396;10.064;2023-02-28T13:33:27;7.10;99.90
5394;DHT22;2720;52.396;10.064;2023-02-28T13:36:22;7.10;99.90
5394;DHT22;2720;52.396;10.064;2023-02-28T13:38:50;6.80;99.90
5394;DHT22;2720;52.396;10.064;2023-02-28T13:41:43;6.60;99.90
5394;DHT22;2720;52.396;10.064;2023-02-28T13:44:12;6.70;99.90
5394;DHT22;2720;52.396;10.064;2023-02-28T13:49:41;6.90;99.90
5394;DHT22;2720;52.396;10.064;2023-02-28T13:52:15;6.80;99.90
5394;DHT22;2720;52.396;10.064;2023-02-28T13:54:54;6.80;99.90
5394;DHT22;2720;52.396;10.064;2023-02-28T13:57:35;6.80;99.90
5394;DHT22;2720;52.396;10.064;2023-02-28T14:00:17;6.80;99.90
5394;DHT22;2720;52.396;10.064;2023-02-28T14:05:42;6.60;99.90
5394;DHT22;2720;52.396;10.064;2023-02-28T14:08:15;6.50;99.90
5394;DHT22;2720;52.396;10.064;2023-02-28T14:10:45;6.60;99.90
5394;DHT22;2720;52.396;10.064;2023-02-28T14:13:38;6.60;99.90
5394;DHT22;2720;52.396;10.064;2023-02-28T14:16:11;6.50;99.90
5394;DHT22;2720;52.396;10.064;2023-02-28T14:18:42;6.60;99.90
5394;DHT22;2720;52.396;10.064;2023-02-28T14:21:21;6.60;99.90
5394;DHT22;2720;52.396;10.064;2023-02-28T14:24:29;6.60;99.90
5394;DHT22;2720;52.396;10.064;2023-02-28T14:32:45;6.20;99.90
5394;DHT22;2720;52.396;10.064;2023-02-28T14:35:35;6.10;99.90
5394;DHT22;2720;52.396;10.064;2023-02-28T14:38:14;6.20;99.90
5394;DHT22;2720;52.396;10.064;2023-02-28T14:40:45;6.00;99.90
5394;DHT22;2720;52.396;10.064;2023-02-28T14:43:20;6.00;99.90
5394;DHT22;2720;52.396;10.064;2023-02-28T14:45:51;5.90;99.90
5394;DHT22;2720;52.396;10.064;2023-02-28T14:48:19;5.70;99.90
5394;DHT22;2720;52.396;10.064;2023-02-28T14:50:49;5.80;99.90
5394;DHT22;2720;52.396;10.064;2023-02-28T14:53:21;5.90;99.90
5394;DHT22;2720;52.396;10.064;2023-02-28T14:55:49;5.90;99.90
5394;DHT22;2720;52.396;10.064;2023-02-28T14:58:24;5.70;99.90
5394;DHT22;2720;52.396;10.064;2023-02-28T15:00:53;5.80;99.90
5394;DHT22;2720;52.396;10.064;2023-02-28T15:03:22;5.80;99.90
5394;DHT22;2720;52.396;10.064;2023-02-28T15:05:54;5.80;99.90
5394;DHT22;2720;52.396;10.064;2023-02-28T15:08:23;5.70;99.90
5394;DHT22;2720;52.396;10.064;2023-02-28T15:10:54;5.60;99.90
5394;DHT22;2720;52.396;10.064;2023-02-28T15:13:22;5.60;99.90
5394;DHT22;2720;52.396;10.064;2023-02-28T15:15:52;5.70;99.90
5394;DHT22;2720;52.396;10.064;2023-02-28T15:18:29;5.70;99.90
5394;DHT22;2720;52.396;10.064;2023-02-28T15:21:02;5.60;99.90
5394;DHT22;2720;52.396;10.064;2023-02-28T15:23:32;5.60;99.90
5394;DHT22;2720;52.396;10.064;2023-02-28T15:26:01;5.70;99.90
5394;DHT22;2720;52.396;10.064;2023-02-28T15:28:29;5.70;99.90
5394;DHT22;2720;52.396;10.064;2023-02-28T15:30:59;5.80;99.90
5394;DHT22;2720;52.396;10.064;2023-02-28T15:33:28;5.90;99.90
5394;DHT22;2720;52.396;10.064;2023-02-28T15:36:07;5.80;99.90
5394;DHT22;2720;52.396;10.064;2023-02-28T15:38:39;5.80;99.90
5394;DHT22;2720;52.396;10.064;2023-02-28T15:41:16;5.70;99.90
5394;DHT22;2720;52.396;10.064;2023-02-28T15:43:47;5.60;99.90
5394;DHT22;2720;52.396;10.064;2023-02-28T15:46:15;5.50;99.90
5394;DHT22;2720;52.396;10.064;2023-02-28T15:48:44;5.40;99.90
5394;DHT22;2720;52.396;10.064;2023-02-28T15:51:18;5.40;99.90
5394;DHT22;2720;52.396;10.064;2023-02-28T15:53:49;5.30;99.90
5394;DHT22;2720;52.396;10.064;2023-02-28T15:56:23;5.20;99.90
5394;DHT22;2720;52.396;10.064;2023-02-28T15:58:53;5.20;99.90
5394;DHT22;2720;52.396;10.064;2023-02-28T16:01:24;5.20;99.90
5394;DHT22;2720;52.396;10.064;2023-02-28T16:03:55;5.10;99.90
5394;DHT22;2720;52.396;10.064;2023-02-28T16:06:34;5.10;99.90
5394;DHT22;2720;52.396;10.064;2023-02-28T16:09:05;5.10;99.90
5394;DHT22;2720;52.396;10.064;2023-02-28T16:11:34;5.10;99.90
5394;DHT22;2720;52.396;10.064;2023-02-28T16:14:04;5.00;99.90
5394;DHT22;2720;52.396;10.064;2023-02-28T16:16:32;4.90;99.90
5394;DHT22;2720;52.396;10.064;2023-02-28T16:19:00;4.80;99.90
5394;DHT22;2720;52.396;10.064;2023-02-28T16:21:27;4.80;99.90
5394;DHT22;2720;52.396;10.064;2023-02-28T16:23:54;4.70;99.90
5394;DHT22;2720;52.396;10.064;2023-02-28T16:26:24;4.50;99.90
5394;DHT22;2720;52.396;10.064;2023-02-28T16:28:53;4.40;99.90
5394;DHT22;2720;52.396;10.064;2023-02-28T16:31:20;4.30;99.90
5394;DHT22;2720;52.396;10.064;2023-02-28T16:33:48;4.10;99.90
5394;DHT22;2720;52.396;10.064;2023-02-28T16:36:17;4.00;99.90
5394;DHT22;2720;52.396;10.064;2023-02-28T16:38:44;3.90;99.90
5394;DHT22;2720;52.396;10.064;2023-02-28T16:41:17;3.80;99.90
5394;DHT22;2720;52.396;10.064;2023-02-28T16:43:48;3.60;99.90
5394;DHT22;2720;52.396;10.064;2023-02-28T16:46:16;3.50;99.90
5394;DHT22;2720;52.396;10.064;2023-02-28T16:48:44;3.30;99.90
5394;DHT22;2720;52.396;10.064;2023-02-28T16:51:13;3.30;99.90
5394;DHT22;2720;52.396;10.064;2023-02-28T16:53:41;3.00;99.90
5394;DHT22;2720;52.396;10.064;2023-02-28T16:56:17;3.00;99.90
5394;DHT22;2720;52.396;10.064;2023-02-28T16:58:45;2.80;99.90